Tropical Cyclones
[Index]
Main Index Home Page Stock Weather Photos Extreme Storms Discussion Storm News and Storm Chasing Reports Tropical Cyclones / Hurricanes / Typhoons Weather Data and Links Wild Fires / Bushfires Weather Observation Techniques Weather Picture Catalogue Tornado Pictures and Reports Stock Video Footage and DVDs for sale
Season 1985-1986 Tropical Cyclone SELWYN Track Map
Season 1985-1986 Summaries: [BoM-AU] [JTWC-AU] [JTWC-SIO] [JTWC-SPAC] [JTWC-SH]
<<- Previous TC | BoM 1985-1986 Season | Next TC ->>

click for intensity scale information  Lat/long Grid: Show Hide

 Date Labels: Show Hide

Bureau of Meteorology Tropical Cyclone Data

Name: SELWYN
Number: 687 / 198586_08

21 Feb 1986 06:00 UTC to 26 Feb 1986 06:00 UTC

    date/time    lat    long    hPa   cat  kts
1986-02-21 06   13.4   114.3   1003         23          
1986-02-21 12   14.0   114.5   1002         25          
1986-02-21 18   14.3   114.8   1001         27          
1986-02-22 00   14.8   114.9   1001         27          
1986-02-22 06   15.4   114.8   1000         31          
1986-02-22 12   15.8   114.3    998         33          
1986-02-22 18   16.1   113.7    996         37          
1986-02-23 00   16.7   113.0    992    1    43          
1986-02-23 06   17.5   112.4    990    1    47          
1986-02-23 12   18.2   111.7    986    1    52          
1986-02-23 18   18.9   110.9    980    2    60          
1986-02-24 00   19.1   110.0    980    2    60          
1986-02-24 06   19.9   108.9    980    2    60          
1986-02-24 12   20.7   108.0    984    2    54          
1986-02-24 18   21.3   107.3    990    1    47          
1986-02-25 00   21.9   106.9    990    1    47          
1986-02-25 06   22.5   106.5    995    1    39          
1986-02-25 12   23.0   106.2    998         35          
1986-02-25 18   23.6   106.1    998         35          
1986-02-26 00   24.0   106.2   1000         31          
1986-02-26 06   24.2   106.3   1002         25          
Winds are 10-min average.

Tropical cyclone tracks developed by Michael Bath using data from the Bureau of Meteorology and Google Maps.


[Australian Severe Weather index] [Copyright Notice] [Email Contacts] [Search This Site] [Privacy Policy]
Document: tropical_cyclone_selwyn.htm Updated: 30 May 2013